Kirovskij, Russia
Current Conditions -  °F | °C
As of 8:30 PM on Thursday 18 Dec 2014 (Local Time) from UHWW Reporting Station
Clear Clear  
Wind Chill: -16°   Ceiling: Unl
Heat Index:   Visibility: 6mi
Dew Point: -15°   Wind: 9mph
Humidity: 51%   Direction: 360°N
Pressure: 30.5"   Gusts: NA
Location:  45.09°N, 133.51°E
Report Text: UHWW 181030Z 36004MPS 9999 SKC M18/M26 Q1033 NOSIG RMKQFE773/1031 25CLRD60
Loading
Personal Weather Stations






























Interactive Weather Map New forecast layout! Learn more

10-Day Weather Forecast

Advertisements
Track Severe Weather on mobile